sensor_id;sensor_type;location;lat;lon;timestamp;P1;durP1;ratioP1;P2;durP2;ratioP2
9799;SDS011;4939;52.00085300;4.17406100;2023-10-31T00:02:16;6.25;;;1.08;;
9799;SDS011;4939;52.00085300;4.17406100;2023-10-31T00:04:42;7.88;;;1.33;;
9799;SDS011;4939;52.00085300;4.17406100;2023-10-31T00:07:08;5.03;;;1.08;;
9799;SDS011;4939;52.00085300;4.17406100;2023-10-31T00:09:33;6.68;;;1.10;;
9799;SDS011;4939;52.00085300;4.17406100;2023-10-31T00:11:59;5.43;;;1.10;;
9799;SDS011;4939;52.00085300;4.17406100;2023-10-31T00:14:25;5.70;;;1.40;;
9799;SDS011;4939;52.00085300;4.17406100;2023-10-31T00:16:52;4.10;;;0.93;;
9799;SDS011;4939;52.00085300;4.17406100;2023-10-31T00:19:18;4.18;;;1.35;;
9799;SDS011;4939;52.00085300;4.17406100;2023-10-31T00:21:44;5.60;;;1.10;;
9799;SDS011;4939;52.00085300;4.17406100;2023-10-31T00:24:10;8.65;;;1.50;;
9799;SDS011;4939;52.00085300;4.17406100;2023-10-31T00:26:36;4.95;;;1.42;;
9799;SDS011;4939;52.00085300;4.17406100;2023-10-31T00:29:02;4.30;;;1.30;;
9799;SDS011;4939;52.00085300;4.17406100;2023-10-31T00:31:28;5.97;;;1.20;;
9799;SDS011;4939;52.00085300;4.17406100;2023-10-31T00:33:53;8.10;;;1.52;;
9799;SDS011;4939;52.00085300;4.17406100;2023-10-31T00:36:20;3.72;;;1.05;;
9799;SDS011;4939;52.00085300;4.17406100;2023-10-31T00:38:46;8.80;;;1.05;;
9799;SDS011;4939;52.00085300;4.17406100;2023-10-31T00:41:13;9.18;;;1.00;;
9799;SDS011;4939;52.00085300;4.17406100;2023-10-31T00:43:39;6.63;;;0.77;;
9799;SDS011;4939;52.00085300;4.17406100;2023-10-31T00:46:05;3.03;;;0.40;;
9799;SDS011;4939;52.00085300;4.17406100;2023-10-31T00:48:30;2.97;;;0.57;;
9799;SDS011;4939;52.00085300;4.17406100;2023-10-31T00:51:04;5.32;;;0.40;;
9799;SDS011;4939;52.00085300;4.17406100;2023-10-31T00:53:31;4.70;;;0.50;;
9799;SDS011;4939;52.00085300;4.17406100;2023-10-31T00:55:56;4.80;;;0.50;;
9799;SDS011;4939;52.00085300;4.17406100;2023-10-31T00:58:23;5.60;;;0.70;;
9799;SDS011;4939;52.00085300;4.17406100;2023-10-31T01:00:49;3.65;;;0.60;;
9799;SDS011;4939;52.00085300;4.17406100;2023-10-31T01:03:15;5.72;;;0.50;;
9799;SDS011;4939;52.00085300;4.17406100;2023-10-31T01:05:41;4.18;;;0.50;;
9799;SDS011;4939;52.00085300;4.17406100;2023-10-31T01:08:07;1.48;;;0.38;;
9799;SDS011;4939;52.00085300;4.17406100;2023-10-31T01:10:32;2.00;;;0.32;;
9799;SDS011;4939;52.00085300;4.17406100;2023-10-31T01:12:58;4.85;;;0.30;;
9799;SDS011;4939;52.00085300;4.17406100;2023-10-31T01:15:24;0.40;;;0.30;;
9799;SDS011;4939;52.00085300;4.17406100;2023-10-31T01:17:49;9.48;;;0.73;;
9799;SDS011;4939;52.00085300;4.17406100;2023-10-31T01:20:15;3.00;;;0.60;;
9799;SDS011;4939;52.00085300;4.17406100;2023-10-31T01:22:41;3.55;;;0.60;;
9799;SDS011;4939;52.00085300;4.17406100;2023-10-31T01:25:07;1.95;;;0.35;;
9799;SDS011;4939;52.00085300;4.17406100;2023-10-31T01:27:33;4.43;;;0.60;;
9799;SDS011;4939;52.00085300;4.17406100;2023-10-31T01:29:58;4.47;;;0.50;;
9799;SDS011;4939;52.00085300;4.17406100;2023-10-31T01:32:24;4.60;;;0.50;;
9799;SDS011;4939;52.00085300;4.17406100;2023-10-31T01:34:51;4.72;;;0.70;;
9799;SDS011;4939;52.00085300;4.17406100;2023-10-31T01:37:17;3.67;;;0.30;;
9799;SDS011;4939;52.00085300;4.17406100;2023-10-31T01:39:44;4.95;;;0.43;;
9799;SDS011;4939;52.00085300;4.17406100;2023-10-31T01:42:13;5.82;;;0.50;;
9799;SDS011;4939;52.00085300;4.17406100;2023-10-31T01:44:40;2.83;;;0.50;;
9799;SDS011;4939;52.00085300;4.17406100;2023-10-31T01:47:06;5.00;;;0.88;;
9799;SDS011;4939;52.00085300;4.17406100;2023-10-31T01:49:32;2.17;;;0.40;;
9799;SDS011;4939;52.00085300;4.17406100;2023-10-31T01:52:02;2.53;;;0.55;;
9799;SDS011;4939;52.00085300;4.17406100;2023-10-31T01:54:29;7.03;;;0.60;;
9799;SDS011;4939;52.00085300;4.17406100;2023-10-31T01:56:55;2.33;;;0.43;;
9799;SDS011;4939;52.00085300;4.17406100;2023-10-31T01:59:24;3.38;;;0.45;;
9799;SDS011;4939;52.00085300;4.17406100;2023-10-31T02:01:50;2.40;;;0.30;;
9799;SDS011;4939;52.00085300;4.17406100;2023-10-31T02:04:16;2.58;;;0.30;;
9799;SDS011;4939;52.00085300;4.17406100;2023-10-31T02:06:42;0.80;;;0.30;;
9799;SDS011;4939;52.00085300;4.17406100;2023-10-31T02:09:07;5.65;;;0.65;;
9799;SDS011;4939;52.00085300;4.17406100;2023-10-31T02:11:33;0.70;;;0.38;;
9799;SDS011;4939;52.00085300;4.17406100;2023-10-31T02:13:59;3.45;;;0.40;;
9799;SDS011;4939;52.00085300;4.17406100;2023-10-31T02:16:25;1.38;;;0.30;;
9799;SDS011;4939;52.00085300;4.17406100;2023-10-31T02:18:51;0.85;;;0.17;;
9799;SDS011;4939;52.00085300;4.17406100;2023-10-31T02:21:17;1.80;;;0.22;;
9799;SDS011;4939;52.00085300;4.17406100;2023-10-31T02:23:54;3.72;;;0.30;;
9799;SDS011;4939;52.00085300;4.17406100;2023-10-31T02:26:28;3.53;;;0.30;;
9799;SDS011;4939;52.00085300;4.17406100;2023-10-31T02:28:58;1.58;;;0.30;;
9799;SDS011;4939;52.00085300;4.17406100;2023-10-31T02:31:24;5.43;;;0.95;;
9799;SDS011;4939;52.00085300;4.17406100;2023-10-31T02:33:50;8.90;;;0.57;;
9799;SDS011;4939;52.00085300;4.17406100;2023-10-31T02:36:16;6.18;;;0.60;;
9799;SDS011;4939;52.00085300;4.17406100;2023-10-31T02:38:42;5.13;;;1.85;;
9799;SDS011;4939;52.00085300;4.17406100;2023-10-31T02:41:08;3.78;;;1.00;;
9799;SDS011;4939;52.00085300;4.17406100;2023-10-31T02:43:34;1.92;;;0.70;;
9799;SDS011;4939;52.00085300;4.17406100;2023-10-31T02:46:00;3.80;;;0.50;;
9799;SDS011;4939;52.00085300;4.17406100;2023-10-31T02:48:26;4.53;;;0.60;;
9799;SDS011;4939;52.00085300;4.17406100;2023-10-31T02:50:51;2.55;;;0.60;;
9799;SDS011;4939;52.00085300;4.17406100;2023-10-31T02:53:18;4.15;;;0.47;;
9799;SDS011;4939;52.00085300;4.17406100;2023-10-31T02:55:44;2.80;;;0.50;;
9799;SDS011;4939;52.00085300;4.17406100;2023-10-31T02:58:10;4.15;;;0.40;;
9799;SDS011;4939;52.00085300;4.17406100;2023-10-31T03:00:36;0.88;;;0.20;;
9799;SDS011;4939;52.00085300;4.17406100;2023-10-31T03:03:03;5.38;;;0.50;;
9799;SDS011;4939;52.00085300;4.17406100;2023-10-31T03:05:29;2.70;;;0.30;;
9799;SDS011;4939;52.00085300;4.17406100;2023-10-31T03:07:55;2.53;;;0.40;;
9799;SDS011;4939;52.00085300;4.17406100;2023-10-31T03:10:21;0.93;;;0.20;;
9799;SDS011;4939;52.00085300;4.17406100;2023-10-31T03:12:47;1.40;;;0.30;;
9799;SDS011;4939;52.00085300;4.17406100;2023-10-31T03:15:13;2.83;;;0.47;;
9799;SDS011;4939;52.00085300;4.17406100;2023-10-31T03:17:39;0.85;;;0.40;;
9799;SDS011;4939;52.00085300;4.17406100;2023-10-31T03:20:05;4.10;;;0.60;;
9799;SDS011;4939;52.00085300;4.17406100;2023-10-31T03:22:31;3.65;;;0.45;;
9799;SDS011;4939;52.00085300;4.17406100;2023-10-31T03:24:57;3.35;;;0.40;;
9799;SDS011;4939;52.00085300;4.17406100;2023-10-31T03:27:22;3.42;;;0.40;;
9799;SDS011;4939;52.00085300;4.17406100;2023-10-31T03:29:48;1.63;;;0.40;;
9799;SDS011;4939;52.00085300;4.17406100;2023-10-31T03:32:14;3.90;;;0.50;;
9799;SDS011;4939;52.00085300;4.17406100;2023-10-31T03:34:40;2.90;;;0.70;;
9799;SDS011;4939;52.00085300;4.17406100;2023-10-31T03:37:06;1.98;;;0.50;;
9799;SDS011;4939;52.00085300;4.17406100;2023-10-31T03:39:32;2.05;;;0.50;;
9799;SDS011;4939;52.00085300;4.17406100;2023-10-31T03:41:59;2.90;;;0.40;;
9799;SDS011;4939;52.00085300;4.17406100;2023-10-31T03:44:25;2.88;;;0.52;;
9799;SDS011;4939;52.00085300;4.17406100;2023-10-31T03:46:51;2.03;;;0.50;;
9799;SDS011;4939;52.00085300;4.17406100;2023-10-31T03:49:17;2.95;;;1.23;;
9799;SDS011;4939;52.00085300;4.17406100;2023-10-31T03:51:42;0.98;;;0.40;;
9799;SDS011;4939;52.00085300;4.17406100;2023-10-31T03:54:08;2.60;;;0.65;;
9799;SDS011;4939;52.00085300;4.17406100;2023-10-31T03:56:41;4.25;;;0.93;;
9799;SDS011;4939;52.00085300;4.17406100;2023-10-31T03:59:08;2.38;;;0.65;;
9799;SDS011;4939;52.00085300;4.17406100;2023-10-31T04:01:34;6.97;;;0.80;;
9799;SDS011;4939;52.00085300;4.17406100;2023-10-31T04:04:00;1.30;;;0.45;;
9799;SDS011;4939;52.00085300;4.17406100;2023-10-31T04:06:25;2.70;;;0.52;;
9799;SDS011;4939;52.00085300;4.17406100;2023-10-31T04:08:52;1.20;;;0.63;;
9799;SDS011;4939;52.00085300;4.17406100;2023-10-31T04:11:18;5.97;;;0.60;;
9799;SDS011;4939;52.00085300;4.17406100;2023-10-31T04:13:44;4.88;;;0.70;;
9799;SDS011;4939;52.00085300;4.17406100;2023-10-31T04:16:09;5.30;;;0.93;;
9799;SDS011;4939;52.00085300;4.17406100;2023-10-31T04:18:36;4.60;;;0.70;;
9799;SDS011;4939;52.00085300;4.17406100;2023-10-31T04:21:02;4.47;;;0.95;;
9799;SDS011;4939;52.00085300;4.17406100;2023-10-31T04:23:28;3.30;;;0.70;;
9799;SDS011;4939;52.00085300;4.17406100;2023-10-31T04:25:54;4.55;;;0.75;;
9799;SDS011;4939;52.00085300;4.17406100;2023-10-31T04:28:20;4.90;;;0.70;;
9799;SDS011;4939;52.00085300;4.17406100;2023-10-31T04:30:46;4.53;;;1.00;;
9799;SDS011;4939;52.00085300;4.17406100;2023-10-31T04:33:12;5.65;;;0.98;;
9799;SDS011;4939;52.00085300;4.17406100;2023-10-31T04:35:38;4.20;;;1.10;;
9799;SDS011;4939;52.00085300;4.17406100;2023-10-31T04:38:05;5.43;;;0.88;;
9799;SDS011;4939;52.00085300;4.17406100;2023-10-31T04:40:31;11.15;;;0.80;;
9799;SDS011;4939;52.00085300;4.17406100;2023-10-31T04:42:57;3.15;;;0.40;;
9799;SDS011;4939;52.00085300;4.17406100;2023-10-31T04:45:22;6.43;;;0.47;;
9799;SDS011;4939;52.00085300;4.17406100;2023-10-31T04:47:48;4.20;;;0.70;;
9799;SDS011;4939;52.00085300;4.17406100;2023-10-31T04:50:14;6.25;;;0.40;;
9799;SDS011;4939;52.00085300;4.17406100;2023-10-31T04:52:40;10.15;;;0.77;;
9799;SDS011;4939;52.00085300;4.17406100;2023-10-31T04:55:07;7.55;;;0.85;;
9799;SDS011;4939;52.00085300;4.17406100;2023-10-31T04:57:33;7.55;;;0.70;;
9799;SDS011;4939;52.00085300;4.17406100;2023-10-31T04:59:59;7.05;;;0.68;;
9799;SDS011;4939;52.00085300;4.17406100;2023-10-31T05:02:24;3.88;;;0.70;;
9799;SDS011;4939;52.00085300;4.17406100;2023-10-31T05:04:51;2.92;;;0.68;;
9799;SDS011;4939;52.00085300;4.17406100;2023-10-31T05:07:17;7.68;;;0.82;;
9799;SDS011;4939;52.00085300;4.17406100;2023-10-31T05:09:43;5.07;;;0.90;;
9799;SDS011;4939;52.00085300;4.17406100;2023-10-31T05:12:10;4.55;;;0.70;;
9799;SDS011;4939;52.00085300;4.17406100;2023-10-31T05:14:35;4.85;;;0.80;;
9799;SDS011;4939;52.00085300;4.17406100;2023-10-31T05:17:01;13.45;;;1.00;;
9799;SDS011;4939;52.00085300;4.17406100;2023-10-31T05:19:27;4.15;;;0.63;;
9799;SDS011;4939;52.00085300;4.17406100;2023-10-31T05:21:53;5.88;;;0.90;;
9799;SDS011;4939;52.00085300;4.17406100;2023-10-31T05:24:19;1.63;;;0.40;;
9799;SDS011;4939;52.00085300;4.17406100;2023-10-31T05:26:45;1.70;;;0.50;;
9799;SDS011;4939;52.00085300;4.17406100;2023-10-31T05:29:11;1.35;;;0.50;;
9799;SDS011;4939;52.00085300;4.17406100;2023-10-31T05:31:37;4.47;;;1.15;;
9799;SDS011;4939;52.00085300;4.17406100;2023-10-31T05:34:03;4.90;;;0.50;;
9799;SDS011;4939;52.00085300;4.17406100;2023-10-31T05:36:29;3.08;;;0.43;;
9799;SDS011;4939;52.00085300;4.17406100;2023-10-31T05:38:55;0.77;;;0.30;;
9799;SDS011;4939;52.00085300;4.17406100;2023-10-31T05:41:21;3.72;;;0.55;;
9799;SDS011;4939;52.00085300;4.17406100;2023-10-31T05:43:48;2.03;;;0.30;;
9799;SDS011;4939;52.00085300;4.17406100;2023-10-31T05:46:13;1.90;;;0.50;;
9799;SDS011;4939;52.00085300;4.17406100;2023-10-31T05:48:40;2.22;;;0.50;;
9799;SDS011;4939;52.00085300;4.17406100;2023-10-31T05:51:13;1.95;;;0.40;;
9799;SDS011;4939;52.00085300;4.17406100;2023-10-31T05:53:41;4.03;;;0.60;;
9799;SDS011;4939;52.00085300;4.17406100;2023-10-31T05:56:08;4.20;;;0.52;;
9799;SDS011;4939;52.00085300;4.17406100;2023-10-31T05:58:35;2.35;;;0.60;;
9799;SDS011;4939;52.00085300;4.17406100;2023-10-31T06:01:01;4.50;;;0.73;;
9799;SDS011;4939;52.00085300;4.17406100;2023-10-31T06:03:27;6.63;;;1.30;;
9799;SDS011;4939;52.00085300;4.17406100;2023-10-31T06:05:53;4.68;;;1.73;;
9799;SDS011;4939;52.00085300;4.17406100;2023-10-31T06:08:19;5.32;;;1.42;;
9799;SDS011;4939;52.00085300;4.17406100;2023-10-31T06:10:45;5.78;;;1.40;;
9799;SDS011;4939;52.00085300;4.17406100;2023-10-31T06:13:11;7.43;;;1.02;;
9799;SDS011;4939;52.00085300;4.17406100;2023-10-31T06:15:37;3.70;;;0.93;;
9799;SDS011;4939;52.00085300;4.17406100;2023-10-31T06:18:03;4.10;;;0.70;;
9799;SDS011;4939;52.00085300;4.17406100;2023-10-31T06:20:29;7.72;;;0.90;;
9799;SDS011;4939;52.00085300;4.17406100;2023-10-31T06:22:55;3.63;;;0.70;;
9799;SDS011;4939;52.00085300;4.17406100;2023-10-31T06:25:21;4.70;;;0.88;;
9799;SDS011;4939;52.00085300;4.17406100;2023-10-31T06:27:46;3.65;;;0.90;;
9799;SDS011;4939;52.00085300;4.17406100;2023-10-31T06:30:12;3.50;;;0.70;;
9799;SDS011;4939;52.00085300;4.17406100;2023-10-31T06:32:38;12.32;;;1.15;;
9799;SDS011;4939;52.00085300;4.17406100;2023-10-31T06:35:06;11.80;;;1.08;;
9799;SDS011;4939;52.00085300;4.17406100;2023-10-31T06:37:32;3.25;;;0.90;;
9799;SDS011;4939;52.00085300;4.17406100;2023-10-31T06:39:58;8.38;;;1.10;;
9799;SDS011;4939;52.00085300;4.17406100;2023-10-31T06:42:24;5.40;;;1.00;;
9799;SDS011;4939;52.00085300;4.17406100;2023-10-31T06:44:50;4.53;;;1.10;;
9799;SDS011;4939;52.00085300;4.17406100;2023-10-31T06:47:16;4.55;;;1.70;;
9799;SDS011;4939;52.00085300;4.17406100;2023-10-31T06:49:42;6.60;;;1.40;;
9799;SDS011;4939;52.00085300;4.17406100;2023-10-31T06:52:08;6.40;;;1.40;;
9799;SDS011;4939;52.00085300;4.17406100;2023-10-31T06:54:33;6.90;;;1.70;;
9799;SDS011;4939;52.00085300;4.17406100;2023-10-31T06:57:00;13.88;;;2.30;;
9799;SDS011;4939;52.00085300;4.17406100;2023-10-31T06:59:29;7.85;;;2.00;;
9799;SDS011;4939;52.00085300;4.17406100;2023-10-31T07:01:55;7.18;;;1.80;;
9799;SDS011;4939;52.00085300;4.17406100;2023-10-31T07:04:21;7.25;;;1.50;;
9799;SDS011;4939;52.00085300;4.17406100;2023-10-31T07:06:46;9.27;;;1.45;;
9799;SDS011;4939;52.00085300;4.17406100;2023-10-31T07:09:12;6.05;;;1.70;;
9799;SDS011;4939;52.00085300;4.17406100;2023-10-31T07:11:38;5.43;;;1.88;;
9799;SDS011;4939;52.00085300;4.17406100;2023-10-31T07:14:04;5.47;;;1.67;;
9799;SDS011;4939;52.00085300;4.17406100;2023-10-31T07:16:31;9.02;;;1.50;;
9799;SDS011;4939;52.00085300;4.17406100;2023-10-31T07:19:03;5.63;;;2.00;;
9799;SDS011;4939;52.00085300;4.17406100;2023-10-31T07:21:29;7.05;;;1.65;;
9799;SDS011;4939;52.00085300;4.17406100;2023-10-31T07:23:56;9.98;;;1.60;;
9799;SDS011;4939;52.00085300;4.17406100;2023-10-31T07:26:22;3.58;;;1.48;;
9799;SDS011;4939;52.00085300;4.17406100;2023-10-31T07:28:49;8.85;;;2.08;;
9799;SDS011;4939;52.00085300;4.17406100;2023-10-31T07:31:15;7.38;;;1.70;;
9799;SDS011;4939;52.00085300;4.17406100;2023-10-31T07:33:43;6.97;;;1.90;;
9799;SDS011;4939;52.00085300;4.17406100;2023-10-31T07:36:10;15.50;;;2.50;;
9799;SDS011;4939;52.00085300;4.17406100;2023-10-31T07:38:36;8.50;;;1.98;;
9799;SDS011;4939;52.00085300;4.17406100;2023-10-31T07:41:02;10.60;;;2.13;;
9799;SDS011;4939;52.00085300;4.17406100;2023-10-31T07:43:28;6.70;;;2.53;;
9799;SDS011;4939;52.00085300;4.17406100;2023-10-31T07:45:54;9.23;;;2.53;;
9799;SDS011;4939;52.00085300;4.17406100;2023-10-31T07:48:20;9.20;;;2.70;;
9799;SDS011;4939;52.00085300;4.17406100;2023-10-31T07:50:47;9.27;;;2.60;;
9799;SDS011;4939;52.00085300;4.17406100;2023-10-31T07:53:13;9.85;;;3.00;;
9799;SDS011;4939;52.00085300;4.17406100;2023-10-31T07:55:39;9.68;;;3.20;;
9799;SDS011;4939;52.00085300;4.17406100;2023-10-31T07:58:05;8.20;;;3.13;;
9799;SDS011;4939;52.00085300;4.17406100;2023-10-31T08:00:31;8.50;;;2.70;;
9799;SDS011;4939;52.00085300;4.17406100;2023-10-31T08:02:59;6.95;;;2.83;;
9799;SDS011;4939;52.00085300;4.17406100;2023-10-31T08:05:25;11.30;;;3.10;;
9799;SDS011;4939;52.00085300;4.17406100;2023-10-31T08:07:51;8.57;;;2.83;;
9799;SDS011;4939;52.00085300;4.17406100;2023-10-31T08:10:17;11.15;;;2.92;;
9799;SDS011;4939;52.00085300;4.17406100;2023-10-31T08:12:43;10.65;;;2.80;;
9799;SDS011;4939;52.00085300;4.17406100;2023-10-31T08:15:09;8.43;;;2.65;;
9799;SDS011;4939;52.00085300;4.17406100;2023-10-31T08:17:35;13.65;;;2.38;;
9799;SDS011;4939;52.00085300;4.17406100;2023-10-31T08:20:02;8.82;;;2.00;;
9799;SDS011;4939;52.00085300;4.17406100;2023-10-31T08:22:30;7.03;;;1.70;;
9799;SDS011;4939;52.00085300;4.17406100;2023-10-31T08:24:57;8.55;;;1.70;;
9799;SDS011;4939;52.00085300;4.17406100;2023-10-31T08:27:23;8.88;;;2.25;;
9799;SDS011;4939;52.00085300;4.17406100;2023-10-31T08:29:49;8.70;;;1.80;;
9799;SDS011;4939;52.00085300;4.17406100;2023-10-31T08:32:15;8.20;;;1.63;;
9799;SDS011;4939;52.00085300;4.17406100;2023-10-31T08:34:41;5.45;;;1.30;;
9799;SDS011;4939;52.00085300;4.17406100;2023-10-31T08:37:07;7.47;;;1.88;;
9799;SDS011;4939;52.00085300;4.17406100;2023-10-31T08:39:36;8.88;;;1.70;;
9799;SDS011;4939;52.00085300;4.17406100;2023-10-31T08:42:02;9.75;;;2.10;;
9799;SDS011;4939;52.00085300;4.17406100;2023-10-31T08:44:28;6.18;;;1.60;;
9799;SDS011;4939;52.00085300;4.17406100;2023-10-31T08:46:53;11.02;;;2.05;;
9799;SDS011;4939;52.00085300;4.17406100;2023-10-31T08:49:19;10.77;;;2.30;;
9799;SDS011;4939;52.00085300;4.17406100;2023-10-31T08:51:45;6.88;;;2.13;;
9799;SDS011;4939;52.00085300;4.17406100;2023-10-31T08:54:11;6.85;;;1.90;;
9799;SDS011;4939;52.00085300;4.17406100;2023-10-31T08:56:37;9.23;;;2.45;;
9799;SDS011;4939;52.00085300;4.17406100;2023-10-31T08:59:02;5.40;;;1.63;;
9799;SDS011;4939;52.00085300;4.17406100;2023-10-31T09:01:28;6.82;;;1.88;;
9799;SDS011;4939;52.00085300;4.17406100;2023-10-31T09:03:54;9.95;;;1.80;;
9799;SDS011;4939;52.00085300;4.17406100;2023-10-31T09:06:20;8.25;;;1.73;;
9799;SDS011;4939;52.00085300;4.17406100;2023-10-31T09:08:46;8.63;;;1.88;;
9799;SDS011;4939;52.00085300;4.17406100;2023-10-31T09:11:12;7.70;;;1.92;;
9799;SDS011;4939;52.00085300;4.17406100;2023-10-31T09:13:37;8.43;;;2.05;;
9799;SDS011;4939;52.00085300;4.17406100;2023-10-31T09:16:03;11.93;;;2.20;;
9799;SDS011;4939;52.00085300;4.17406100;2023-10-31T09:18:29;8.05;;;2.00;;
9799;SDS011;4939;52.00085300;4.17406100;2023-10-31T09:20:55;15.55;;;2.67;;
9799;SDS011;4939;52.00085300;4.17406100;2023-10-31T09:23:20;10.50;;;2.10;;
9799;SDS011;4939;52.00085300;4.17406100;2023-10-31T09:25:46;10.18;;;2.25;;
9799;SDS011;4939;52.00085300;4.17406100;2023-10-31T09:28:12;9.95;;;2.28;;
9799;SDS011;4939;52.00085300;4.17406100;2023-10-31T09:30:38;9.02;;;2.42;;
9799;SDS011;4939;52.00085300;4.17406100;2023-10-31T09:33:04;10.50;;;2.53;;
9799;SDS011;4939;52.00085300;4.17406100;2023-10-31T09:35:29;13.18;;;2.80;;
9799;SDS011;4939;52.00085300;4.17406100;2023-10-31T09:37:55;7.95;;;2.83;;
9799;SDS011;4939;52.00085300;4.17406100;2023-10-31T09:40:21;10.15;;;2.95;;
9799;SDS011;4939;52.00085300;4.17406100;2023-10-31T09:42:47;8.98;;;2.65;;
9799;SDS011;4939;52.00085300;4.17406100;2023-10-31T09:45:13;7.45;;;2.72;;
9799;SDS011;4939;52.00085300;4.17406100;2023-10-31T09:47:39;16.98;;;2.90;;
9799;SDS011;4939;52.00085300;4.17406100;2023-10-31T09:50:06;6.65;;;2.30;;
9799;SDS011;4939;52.00085300;4.17406100;2023-10-31T09:52:37;9.55;;;1.50;;
9799;SDS011;4939;52.00085300;4.17406100;2023-10-31T09:55:04;8.50;;;1.83;;
9799;SDS011;4939;52.00085300;4.17406100;2023-10-31T09:57:30;4.72;;;1.05;;
9799;SDS011;4939;52.00085300;4.17406100;2023-10-31T09:59:57;5.55;;;1.10;;
9799;SDS011;4939;52.00085300;4.17406100;2023-10-31T10:02:24;6.22;;;1.20;;
9799;SDS011;4939;52.00085300;4.17406100;2023-10-31T10:04:50;9.43;;;1.60;;
9799;SDS011;4939;52.00085300;4.17406100;2023-10-31T10:07:16;10.20;;;1.35;;
9799;SDS011;4939;52.00085300;4.17406100;2023-10-31T10:09:43;7.97;;;1.90;;
9799;SDS011;4939;52.00085300;4.17406100;2023-10-31T10:12:15;8.70;;;1.77;;
9799;SDS011;4939;52.00085300;4.17406100;2023-10-31T10:14:41;9.23;;;1.38;;
9799;SDS011;4939;52.00085300;4.17406100;2023-10-31T10:17:13;13.80;;;1.83;;
9799;SDS011;4939;52.00085300;4.17406100;2023-10-31T10:19:45;9.60;;;1.90;;
9799;SDS011;4939;52.00085300;4.17406100;2023-10-31T10:22:11;11.02;;;1.90;;
9799;SDS011;4939;52.00085300;4.17406100;2023-10-31T10:24:41;13.80;;;2.42;;
9799;SDS011;4939;52.00085300;4.17406100;2023-10-31T10:27:07;7.82;;;1.58;;
9799;SDS011;4939;52.00085300;4.17406100;2023-10-31T10:29:33;12.60;;;1.75;;
9799;SDS011;4939;52.00085300;4.17406100;2023-10-31T10:32:00;11.43;;;2.45;;
9799;SDS011;4939;52.00085300;4.17406100;2023-10-31T10:34:26;7.30;;;2.58;;
9799;SDS011;4939;52.00085300;4.17406100;2023-10-31T10:36:51;14.90;;;3.88;;
9799;SDS011;4939;52.00085300;4.17406100;2023-10-31T10:39:20;11.98;;;4.32;;
9799;SDS011;4939;52.00085300;4.17406100;2023-10-31T10:41:51;14.80;;;5.10;;
9799;SDS011;4939;52.00085300;4.17406100;2023-10-31T10:44:26;15.20;;;5.53;;
9799;SDS011;4939;52.00085300;4.17406100;2023-10-31T10:47:01;13.43;;;5.57;;
9799;SDS011;4939;52.00085300;4.17406100;2023-10-31T10:49:34;15.10;;;5.55;;
9799;SDS011;4939;52.00085300;4.17406100;2023-10-31T10:52:09;17.95;;;5.85;;
9799;SDS011;4939;52.00085300;4.17406100;2023-10-31T10:57:45;20.48;;;6.60;;
9799;SDS011;4939;52.00085300;4.17406100;2023-10-31T11:02:49;13.30;;;5.80;;
9799;SDS011;4939;52.00085300;4.17406100;2023-10-31T11:05:17;14.45;;;5.88;;
9799;SDS011;4939;52.00085300;4.17406100;2023-10-31T11:07:43;14.05;;;5.93;;
9799;SDS011;4939;52.00085300;4.17406100;2023-10-31T11:10:10;14.00;;;5.90;;
9799;SDS011;4939;52.00085300;4.17406100;2023-10-31T11:12:37;14.95;;;6.00;;
9799;SDS011;4939;52.00085300;4.17406100;2023-10-31T11:15:06;13.32;;;6.00;;
9799;SDS011;4939;52.00085300;4.17406100;2023-10-31T11:17:39;14.25;;;6.03;;
9799;SDS011;4939;52.00085300;4.17406100;2023-10-31T11:20:07;17.17;;;5.87;;
9799;SDS011;4939;52.00085300;4.17406100;2023-10-31T11:22:36;12.13;;;6.15;;
9799;SDS011;4939;52.00085300;4.17406100;2023-10-31T11:25:10;15.88;;;6.30;;
9799;SDS011;4939;52.00085300;4.17406100;2023-10-31T11:27:38;15.10;;;6.13;;
9799;SDS011;4939;52.00085300;4.17406100;2023-10-31T11:30:27;16.40;;;6.13;;
9799;SDS011;4939;52.00085300;4.17406100;2023-10-31T11:32:55;14.55;;;5.22;;
9799;SDS011;4939;52.00085300;4.17406100;2023-10-31T11:35:24;13.98;;;6.10;;
9799;SDS011;4939;52.00085300;4.17406100;2023-10-31T11:38:11;14.23;;;5.45;;
9799;SDS011;4939;52.00085300;4.17406100;2023-10-31T11:43:15;13.40;;;6.22;;
9799;SDS011;4939;52.00085300;4.17406100;2023-10-31T11:45:42;18.30;;;8.07;;
9799;SDS011;4939;52.00085300;4.17406100;2023-10-31T11:48:14;16.10;;;7.70;;
9799;SDS011;4939;52.00085300;4.17406100;2023-10-31T11:50:40;20.10;;;8.25;;
9799;SDS011;4939;52.00085300;4.17406100;2023-10-31T11:53:07;21.40;;;8.60;;
9799;SDS011;4939;52.00085300;4.17406100;2023-10-31T11:55:45;19.98;;;9.18;;
9799;SDS011;4939;52.00085300;4.17406100;2023-10-31T12:00:46;19.83;;;8.80;;
9799;SDS011;4939;52.00085300;4.17406100;2023-10-31T12:03:21;23.58;;;10.07;;
9799;SDS011;4939;52.00085300;4.17406100;2023-10-31T12:06:05;26.80;;;12.33;;
9799;SDS011;4939;52.00085300;4.17406100;2023-10-31T12:08:36;28.17;;;12.85;;
9799;SDS011;4939;52.00085300;4.17406100;2023-10-31T12:11:07;24.42;;;10.93;;
9799;SDS011;4939;52.00085300;4.17406100;2023-10-31T12:13:54;25.15;;;10.63;;
9799;SDS011;4939;52.00085300;4.17406100;2023-10-31T12:16:22;23.50;;;9.90;;
9799;SDS011;4939;52.00085300;4.17406100;2023-10-31T12:18:56;22.35;;;9.75;;
9799;SDS011;4939;52.00085300;4.17406100;2023-10-31T12:24:11;22.70;;;8.98;;
9799;SDS011;4939;52.00085300;4.17406100;2023-10-31T12:26:38;21.90;;;9.35;;
9799;SDS011;4939;52.00085300;4.17406100;2023-10-31T12:29:11;20.70;;;9.05;;
9799;SDS011;4939;52.00085300;4.17406100;2023-10-31T12:34:11;22.80;;;9.50;;
9799;SDS011;4939;52.00085300;4.17406100;2023-10-31T12:36:38;23.38;;;10.63;;
9799;SDS011;4939;52.00085300;4.17406100;2023-10-31T12:39:05;23.33;;;9.65;;
9799;SDS011;4939;52.00085300;4.17406100;2023-10-31T12:41:35;26.30;;;10.82;;
9799;SDS011;4939;52.00085300;4.17406100;2023-10-31T12:44:01;26.85;;;11.15;;
9799;SDS011;4939;52.00085300;4.17406100;2023-10-31T12:46:29;27.92;;;11.25;;
9799;SDS011;4939;52.00085300;4.17406100;2023-10-31T12:48:56;26.25;;;10.85;;
9799;SDS011;4939;52.00085300;4.17406100;2023-10-31T12:51:22;23.33;;;9.50;;
9799;SDS011;4939;52.00085300;4.17406100;2023-10-31T12:53:49;27.27;;;10.65;;
9799;SDS011;4939;52.00085300;4.17406100;2023-10-31T12:59:09;21.95;;;9.35;;
9799;SDS011;4939;52.00085300;4.17406100;2023-10-31T13:01:44;22.48;;;9.07;;
9799;SDS011;4939;52.00085300;4.17406100;2023-10-31T13:04:13;23.02;;;9.00;;
9799;SDS011;4939;52.00085300;4.17406100;2023-10-31T13:07:04;22.65;;;9.65;;
9799;SDS011;4939;52.00085300;4.17406100;2023-10-31T13:09:32;26.23;;;11.13;;
9799;SDS011;4939;52.00085300;4.17406100;2023-10-31T13:12:00;26.90;;;11.77;;
9799;SDS011;4939;52.00085300;4.17406100;2023-10-31T13:14:28;31.17;;;12.52;;
9799;SDS011;4939;52.00085300;4.17406100;2023-10-31T13:16:53;30.83;;;12.75;;
9799;SDS011;4939;52.00085300;4.17406100;2023-10-31T13:19:19;34.15;;;13.68;;
9799;SDS011;4939;52.00085300;4.17406100;2023-10-31T13:21:46;32.95;;;13.55;;
9799;SDS011;4939;52.00085300;4.17406100;2023-10-31T13:24:12;33.10;;;13.32;;
9799;SDS011;4939;52.00085300;4.17406100;2023-10-31T13:26:38;31.33;;;12.75;;